createdAt,value
2023-01-22T00:02:24.736Z,7.74
2023-01-22T00:05:30.675Z,7.98
2023-01-22T00:08:37.294Z,7.74
2023-01-22T00:11:43.813Z,7.94
2023-01-22T00:14:51.095Z,7.50
2023-01-22T00:17:59.031Z,7.70
2023-01-22T00:21:05.551Z,7.70
2023-01-22T00:24:12.255Z,7.54
2023-01-22T00:27:18.752Z,7.99
2023-01-22T00:30:25.384Z,8.30
2023-01-22T00:33:33.369Z,8.26
2023-01-22T00:36:42.702Z,7.90
2023-01-22T00:39:49.223Z,7.93
2023-01-22T00:42:55.339Z,8.07
2023-01-22T00:46:01.675Z,8.11
2023-01-22T00:49:09.260Z,8.30
2023-01-22T00:52:15.804Z,7.80
2023-01-22T00:55:21.982Z,7.86
2023-01-22T00:58:29.463Z,8.14
2023-01-22T01:01:35.918Z,7.95
2023-01-22T01:04:44.003Z,8.24
2023-01-22T01:07:50.074Z,8.13
2023-01-22T01:10:59.758Z,7.87
2023-01-22T01:14:06.995Z,8.05
2023-01-22T01:17:13.561Z,8.06
2023-01-22T01:20:22.496Z,8.09
2023-01-22T01:23:30.302Z,8.00
2023-01-22T01:26:36.749Z,7.86
2023-01-22T01:29:45.985Z,7.66
2023-01-22T01:32:53.919Z,7.45
2023-01-22T01:36:03.001Z,7.61
2023-01-22T01:39:10.001Z,7.40
2023-01-22T01:42:16.243Z,7.49
2023-01-22T01:45:29.094Z,7.04
2023-01-22T01:48:39.395Z,7.12
2023-01-22T01:51:48.204Z,7.06
2023-01-22T01:55:00.444Z,7.30
2023-01-22T01:58:14.741Z,6.80
2023-01-22T02:01:21.798Z,6.61
2023-01-22T02:04:29.414Z,6.84
2023-01-22T02:07:37.698Z,6.79
2023-01-22T02:10:45.889Z,6.70
2023-01-22T02:13:57.418Z,6.75
2023-01-22T02:17:08.396Z,6.93
2023-01-22T02:20:14.757Z,6.86
2023-01-22T02:23:23.079Z,6.87
2023-01-22T02:26:30.025Z,6.83
2023-01-22T02:29:36.299Z,6.83
2023-01-22T02:32:45.120Z,6.92
2023-01-22T02:35:51.649Z,6.69
2023-01-22T02:38:59.554Z,6.67
2023-01-22T02:42:07.256Z,6.74
2023-01-22T02:45:13.679Z,6.80
2023-01-22T02:48:20.046Z,6.92
2023-01-22T02:51:26.710Z,6.84
2023-01-22T02:54:34.103Z,6.79
2023-01-22T02:57:40.180Z,7.17
2023-01-22T03:00:46.174Z,7.07
2023-01-22T03:03:54.230Z,7.08
2023-01-22T03:07:00.617Z,7.14
2023-01-22T03:10:09.244Z,7.28
2023-01-22T03:13:33.251Z,6.91
2023-01-22T03:16:57.259Z,6.67
2023-01-22T03:20:21.090Z,6.35
2023-01-22T03:23:28.248Z,6.48
2023-01-22T03:26:37.358Z,6.77
2023-01-22T03:29:43.702Z,7.07
2023-01-22T03:32:50.118Z,6.95
2023-01-22T03:36:01.407Z,7.34
2023-01-22T03:39:07.712Z,7.28
2023-01-22T03:42:15.409Z,7.05
2023-01-22T03:45:21.873Z,6.66
2023-01-22T03:48:28.179Z,7.14
2023-01-22T03:51:34.972Z,6.73
2023-01-22T03:54:41.234Z,7.03
2023-01-22T03:57:48.600Z,7.29
2023-01-22T04:00:57.882Z,7.31
2023-01-22T04:04:04.572Z,7.04
2023-01-22T04:07:10.945Z,6.85
2023-01-22T04:10:18.372Z,7.27
2023-01-22T04:13:26.601Z,6.97
2023-01-22T04:16:32.989Z,6.76
2023-01-22T04:19:39.119Z,6.77
2023-01-22T04:22:45.523Z,6.55
2023-01-22T04:25:53.886Z,6.49
2023-01-22T04:29:01.784Z,7.04
2023-01-22T04:32:08.080Z,7.14
2023-01-22T04:35:14.268Z,7.20
2023-01-22T04:38:21.260Z,7.23
2023-01-22T04:41:27.618Z,7.02
2023-01-22T04:44:35.503Z,7.03
2023-01-22T04:47:42.685Z,6.81
2023-01-22T04:50:49.057Z,6.83
2023-01-22T04:54:00.651Z,6.77
2023-01-22T04:57:07.591Z,6.99
2023-01-22T05:00:17.105Z,6.82
2023-01-22T05:03:23.730Z,7.08
2023-01-22T05:06:31.444Z,7.26
2023-01-22T05:09:37.716Z,7.28
2023-01-22T05:12:44.043Z,7.21
2023-01-22T05:15:52.216Z,7.08
2023-01-22T05:19:00.762Z,7.00
2023-01-22T05:22:07.421Z,6.69
2023-01-22T05:25:14.386Z,7.07
2023-01-22T05:28:20.918Z,7.16
2023-01-22T05:31:28.776Z,6.84
2023-01-22T05:34:35.250Z,7.23
2023-01-22T05:37:44.109Z,7.34
2023-01-22T05:40:50.431Z,7.20
2023-01-22T05:43:56.972Z,7.38
2023-01-22T05:47:04.716Z,7.25
2023-01-22T05:50:12.399Z,7.34
2023-01-22T05:53:18.890Z,6.84
2023-01-22T05:56:25.370Z,7.19
2023-01-22T05:59:31.914Z,7.35
2023-01-22T06:02:39.587Z,6.63
2023-01-22T06:05:46.163Z,7.19
2023-01-22T06:08:52.883Z,7.14
2023-01-22T06:11:59.108Z,7.19
2023-01-22T06:15:06.245Z,7.42
2023-01-22T06:18:14.096Z,7.11
2023-01-22T06:21:23.124Z,7.08
2023-01-22T06:24:29.294Z,7.12
2023-01-22T06:27:35.812Z,6.99
2023-01-22T06:30:42.282Z,6.87
2023-01-22T06:33:49.748Z,7.20
2023-01-22T06:36:56.227Z,7.13
2023-01-22T06:40:02.441Z,7.55
2023-01-22T06:43:10.772Z,7.55
2023-01-22T06:46:16.944Z,7.67
2023-01-22T06:49:24.835Z,7.54
2023-01-22T06:52:31.032Z,7.61
2023-01-22T06:55:37.679Z,7.78
2023-01-22T06:58:44.165Z,7.77
2023-01-22T07:01:50.390Z,7.79
2023-01-22T07:04:58.377Z,7.75
2023-01-22T07:08:04.894Z,7.88
2023-01-22T07:11:11.914Z,7.85
2023-01-22T07:14:28.858Z,7.99
2023-01-22T07:17:38.835Z,7.54
2023-01-22T07:20:47.105Z,7.19
2023-01-22T07:23:53.299Z,7.47
2023-01-22T07:26:59.802Z,7.88
2023-01-22T07:30:07.184Z,7.92
2023-01-22T07:33:13.766Z,8.20
2023-01-22T07:36:21.705Z,8.04
2023-01-22T07:39:28.288Z,7.67
2023-01-22T07:42:34.717Z,8.12
2023-01-22T07:45:41.892Z,7.90
2023-01-22T07:48:48.334Z,8.44
2023-01-22T07:51:55.642Z,8.24
2023-01-22T07:55:01.587Z,7.95
2023-01-22T07:58:09.332Z,7.92
2023-01-22T08:01:15.876Z,8.20
2023-01-22T08:04:22.431Z,8.03
2023-01-22T08:07:30.621Z,7.71
2023-01-22T08:10:37.103Z,8.17
2023-01-22T08:13:43.350Z,8.19
2023-01-22T08:16:49.782Z,8.06
2023-01-22T08:19:56.201Z,8.64
2023-01-22T08:23:03.766Z,8.44
2023-01-22T08:26:09.962Z,8.31
2023-01-22T08:29:16.453Z,8.15
2023-01-22T08:32:23.135Z,7.94
2023-01-22T08:35:29.195Z,8.35
2023-01-22T08:38:36.816Z,8.96
2023-01-22T08:41:43.372Z,8.02
2023-01-22T08:44:49.804Z,9.04
2023-01-22T08:47:59.510Z,8.91
2023-01-22T08:51:05.999Z,9.03
2023-01-22T08:54:13.883Z,8.53
2023-01-22T08:57:20.457Z,9.05
2023-01-22T09:00:27.747Z,9.68
2023-01-22T09:03:33.941Z,9.73
2023-01-22T09:06:40.631Z,9.14
2023-01-22T09:09:48.825Z,9.60
2023-01-22T09:12:54.900Z,9.70
2023-01-22T09:16:01.233Z,10.08
2023-01-22T09:19:08.278Z,10.16
2023-01-22T09:22:14.524Z,10.25
2023-01-22T09:25:22.395Z,9.73
2023-01-22T09:28:28.935Z,10.28
2023-01-22T09:31:36.504Z,10.14
2023-01-22T09:34:42.704Z,9.94
2023-01-22T09:37:49.133Z,10.18
2023-01-22T09:41:02.132Z,11.01
2023-01-22T09:44:16.907Z,10.47
2023-01-22T09:47:33.474Z,10.16
2023-01-22T09:50:41.451Z,10.06
2023-01-22T09:53:49.860Z,10.07
2023-01-22T09:57:00.700Z,10.22
2023-01-22T10:00:18.104Z,10.55
2023-01-22T10:03:30.040Z,10.96
2023-01-22T10:06:36.590Z,10.38
2023-01-22T10:09:51.889Z,10.93
2023-01-22T10:13:08.992Z,10.45
2023-01-22T10:16:15.812Z,10.57
2023-01-22T10:19:27.552Z,11.10
2023-01-22T10:22:34.111Z,10.21
2023-01-22T10:25:48.222Z,10.32
2023-01-22T10:28:58.632Z,10.71
2023-01-22T10:32:17.228Z,10.45
2023-01-22T10:35:24.462Z,10.74
2023-01-22T10:38:32.730Z,10.85
2023-01-22T10:41:39.634Z,11.20
2023-01-22T10:44:48.290Z,11.61
2023-01-22T10:48:05.762Z,11.32
2023-01-22T10:51:16.252Z,11.39
2023-01-22T10:54:26.395Z,11.52
2023-01-22T10:57:36.850Z,11.42
2023-01-22T11:00:51.789Z,11.03
2023-01-22T11:03:58.499Z,11.17
2023-01-22T11:07:08.288Z,11.05
2023-01-22T11:10:21.762Z,11.53
2023-01-22T11:13:40.132Z,11.49
2023-01-22T11:16:52.583Z,11.46
2023-01-22T11:20:02.559Z,11.47
2023-01-22T11:23:19.263Z,11.67
2023-01-22T11:26:44.914Z,11.96
2023-01-22T11:30:03.690Z,12.44
2023-01-22T11:33:27.091Z,12.17
2023-01-22T11:36:38.475Z,11.80
2023-01-22T11:40:09.139Z,11.51
2023-01-22T11:43:26.988Z,11.35
2023-01-22T11:46:53.309Z,11.28
2023-01-22T11:50:19.883Z,11.87
2023-01-22T11:53:48.323Z,11.37
2023-01-22T11:57:21.423Z,11.29
2023-01-22T12:00:39.582Z,12.06
2023-01-22T12:04:20.619Z,11.34
2023-01-22T12:07:52.786Z,11.58
2023-01-22T12:11:17.983Z,11.76
2023-01-22T12:14:55.150Z,12.31
2023-01-22T12:18:42.997Z,11.87
2023-01-22T12:21:59.182Z,12.90
2023-01-22T12:25:21.866Z,13.29
2023-01-22T12:28:33.570Z,13.31
2023-01-22T12:31:44.621Z,13.16
2023-01-22T12:34:57.621Z,12.83
2023-01-22T12:38:17.627Z,13.33
2023-01-22T12:41:39.395Z,13.66
2023-01-22T12:45:03.761Z,13.28
2023-01-22T12:48:21.079Z,12.68
2023-01-22T12:51:35.863Z,13.25
2023-01-22T12:54:42.261Z,14.56
2023-01-22T12:57:50.213Z,14.78
2023-01-22T13:01:06.630Z,13.46
2023-01-22T13:04:14.129Z,13.85
2023-01-22T13:07:24.549Z,12.97
2023-01-22T13:10:33.191Z,13.69
2023-01-22T13:13:49.796Z,14.56
2023-01-22T13:16:59.581Z,13.93
2023-01-22T13:20:15.779Z,13.92
2023-01-22T13:23:22.071Z,14.28
2023-01-22T13:26:30.781Z,13.84
2023-01-22T13:29:39.766Z,13.96
2023-01-22T13:32:46.024Z,14.08
2023-01-22T13:35:52.836Z,14.02
2023-01-22T13:39:00.798Z,13.53
2023-01-22T13:42:07.363Z,12.41
2023-01-22T13:45:25.312Z,12.12
2023-01-22T13:48:32.269Z,11.64
2023-01-22T13:51:39.480Z,11.41
2023-01-22T13:54:50.315Z,11.41
2023-01-22T13:57:58.473Z,11.02
2023-01-22T14:01:06.427Z,11.21
2023-01-22T14:04:37.192Z,11.16
2023-01-22T14:07:44.404Z,11.13
2023-01-22T14:10:58.283Z,10.98
2023-01-22T14:14:15.318Z,10.83
2023-01-22T14:17:26.229Z,10.79
2023-01-22T14:20:32.871Z,10.82
2023-01-22T14:23:40.188Z,10.83
2023-01-22T14:26:46.955Z,10.76
2023-01-22T14:29:54.973Z,10.79
2023-01-22T14:33:03.231Z,10.58
2023-01-22T14:36:10.254Z,10.56
2023-01-22T14:39:16.948Z,10.57
2023-01-22T14:42:26.622Z,10.45
2023-01-22T14:45:35.928Z,10.51
2023-01-22T14:48:43.675Z,10.45
2023-01-22T14:51:50.094Z,10.41
2023-01-22T14:54:57.088Z,10.37
2023-01-22T14:58:04.331Z,10.40
2023-01-22T15:01:21.931Z,10.69
2023-01-22T15:04:29.839Z,10.57
2023-01-22T15:07:36.852Z,10.48
2023-01-22T15:10:43.223Z,10.61
2023-01-22T15:13:50.266Z,10.42
2023-01-22T15:16:56.464Z,10.35
2023-01-22T15:20:04.941Z,10.29
2023-01-22T15:23:11.362Z,10.42
2023-01-22T15:26:26.370Z,10.32
2023-01-22T15:29:32.694Z,10.34
2023-01-22T15:32:38.829Z,10.33
2023-01-22T15:35:46.425Z,10.18
2023-01-22T15:38:52.760Z,10.16
2023-01-22T15:41:59.275Z,10.21
2023-01-22T15:45:06.842Z,10.13
2023-01-22T15:48:14.082Z,10.04
2023-01-22T15:51:22.633Z,9.91
2023-01-22T15:54:28.806Z,9.81
2023-01-22T15:57:35.018Z,9.75
2023-01-22T16:00:41.071Z,9.76
2023-01-22T16:03:47.331Z,9.70
2023-01-22T16:06:55.069Z,9.58
2023-01-22T16:10:01.355Z,9.48
2023-01-22T16:13:07.606Z,9.51
2023-01-22T16:16:17.106Z,9.45
2023-01-22T16:19:23.107Z,9.23
2023-01-22T16:22:30.867Z,8.93
2023-01-22T16:25:40.476Z,8.80
2023-01-22T16:28:49.351Z,8.62
2023-01-22T16:31:55.799Z,8.82
2023-01-22T16:35:02.202Z,8.97
2023-01-22T16:38:09.898Z,9.09
2023-01-22T16:41:27.965Z,9.15
2023-01-22T16:44:34.117Z,9.41
2023-01-22T16:47:40.455Z,9.59
2023-01-22T16:50:46.791Z,9.84
2023-01-22T16:53:55.089Z,9.54
2023-01-22T16:57:03.056Z,9.59
2023-01-22T17:00:11.416Z,9.39
2023-01-22T17:03:17.474Z,9.40
2023-01-22T17:06:27.718Z,9.35
2023-01-22T17:09:36.480Z,9.40
2023-01-22T17:12:43.011Z,9.33
2023-01-22T17:15:50.593Z,9.62
2023-01-22T17:18:59.204Z,9.57
2023-01-22T17:22:06.010Z,9.48
2023-01-22T17:25:14.011Z,9.43
2023-01-22T17:28:22.160Z,9.54
2023-01-22T17:31:31.464Z,9.41
2023-01-22T17:34:38.307Z,9.08
2023-01-22T17:37:44.623Z,9.54
2023-01-22T17:40:52.519Z,9.14
2023-01-22T17:43:59.851Z,9.18
2023-01-22T17:47:06.382Z,9.28
2023-01-22T17:50:14.084Z,9.20
2023-01-22T17:53:20.510Z,9.46
2023-01-22T17:56:31.218Z,9.05
2023-01-22T17:59:37.924Z,9.27
2023-01-22T18:02:44.535Z,9.35
2023-01-22T18:05:54.653Z,9.06
2023-01-22T18:09:01.921Z,8.70
2023-01-22T18:12:09.545Z,9.06
2023-01-22T18:15:15.685Z,8.94
2023-01-22T18:18:21.908Z,8.98
2023-01-22T18:21:29.127Z,8.82
2023-01-22T18:24:36.623Z,8.69
2023-01-22T18:27:44.579Z,8.67
2023-01-22T18:30:51.028Z,8.59
2023-01-22T18:34:00.844Z,8.39
2023-01-22T18:37:07.121Z,8.25
2023-01-22T18:40:14.598Z,8.21
2023-01-22T18:43:22.237Z,8.29
2023-01-22T18:46:31.155Z,8.44
2023-01-22T18:49:37.667Z,8.33
2023-01-22T18:52:44.687Z,8.21
2023-01-22T18:55:51.095Z,8.19
2023-01-22T18:58:59.877Z,7.99
2023-01-22T19:02:07.739Z,8.21
2023-01-22T19:05:14.171Z,8.15
2023-01-22T19:08:22.325Z,8.03
2023-01-22T19:11:28.768Z,8.07
2023-01-22T19:14:36.511Z,8.24
2023-01-22T19:17:42.844Z,8.20
2023-01-22T19:20:49.133Z,7.98
2023-01-22T19:23:57.363Z,8.10
2023-01-22T19:27:04.097Z,8.10
2023-01-22T19:30:13.485Z,8.14
2023-01-22T19:33:21.672Z,7.91
2023-01-22T19:36:30.504Z,8.02
2023-01-22T19:39:37.495Z,8.17
2023-01-22T19:42:46.956Z,8.20
2023-01-22T19:45:54.521Z,8.07
2023-01-22T19:49:01.021Z,8.14
2023-01-22T19:52:07.638Z,8.16
2023-01-22T19:55:14.088Z,8.12
2023-01-22T19:58:20.775Z,7.89
2023-01-22T20:01:28.779Z,7.99
2023-01-22T20:04:35.835Z,8.24
2023-01-22T20:07:44.496Z,8.38
2023-01-22T20:10:59.592Z,8.19
2023-01-22T20:14:06.103Z,8.40
2023-01-22T20:17:14.778Z,8.17
2023-01-22T20:20:22.565Z,8.33
2023-01-22T20:23:30.477Z,8.26
2023-01-22T20:26:37.166Z,8.10
2023-01-22T20:29:43.463Z,8.35
2023-01-22T20:32:51.165Z,8.08
2023-01-22T20:35:58.411Z,8.25
2023-01-22T20:39:05.303Z,8.36
2023-01-22T20:42:11.624Z,8.39
2023-01-22T20:45:18.599Z,8.31
2023-01-22T20:48:26.552Z,8.39
2023-01-22T20:51:33.066Z,8.09
2023-01-22T20:54:50.029Z,8.21
2023-01-22T20:58:05.309Z,7.87
2023-01-22T21:01:14.628Z,7.74
2023-01-22T21:04:23.586Z,7.52
2023-01-22T21:07:29.805Z,7.99
2023-01-22T21:10:36.146Z,7.88
2023-01-22T21:13:42.143Z,8.25
2023-01-22T21:16:49.222Z,8.28
2023-01-22T21:19:58.060Z,8.01
2023-01-22T21:23:04.514Z,7.94
2023-01-22T21:26:15.417Z,7.70
2023-01-22T21:29:23.896Z,8.05
2023-01-22T21:32:30.737Z,8.14
2023-01-22T21:35:38.480Z,8.17
2023-01-22T21:38:46.938Z,8.05
2023-01-22T21:42:15.323Z,7.94
2023-01-22T21:45:40.487Z,7.82
2023-01-22T21:48:47.194Z,8.08
2023-01-22T21:51:56.355Z,8.14
2023-01-22T21:55:02.678Z,8.12
2023-01-22T21:58:09.071Z,8.14
2023-01-22T22:01:17.366Z,7.95
2023-01-22T22:04:25.613Z,7.89
2023-01-22T22:07:33.251Z,8.16
2023-01-22T22:10:39.509Z,8.09
2023-01-22T22:13:45.871Z,8.07
2023-01-22T22:16:52.295Z,8.18
2023-01-22T22:19:58.780Z,8.15
2023-01-22T22:23:06.788Z,8.00
2023-01-22T22:26:13.573Z,8.12
2023-01-22T22:29:19.887Z,8.32
2023-01-22T22:32:26.484Z,8.39
2023-01-22T22:35:33.109Z,8.48
2023-01-22T22:38:41.357Z,8.28
2023-01-22T22:41:47.791Z,8.26
2023-01-22T22:44:54.187Z,8.27
2023-01-22T22:48:00.363Z,7.82
2023-01-22T22:51:11.364Z,7.92
2023-01-22T22:54:20.922Z,7.88
2023-01-22T22:57:27.250Z,8.20
2023-01-22T23:00:33.396Z,8.31
2023-01-22T23:03:40.642Z,8.26
2023-01-22T23:06:47.707Z,8.20
2023-01-22T23:09:56.558Z,8.24
2023-01-22T23:13:03.837Z,8.44
2023-01-22T23:16:14.470Z,8.35
2023-01-22T23:19:22.615Z,8.33
2023-01-22T23:22:29.314Z,8.25
2023-01-22T23:25:37.350Z,7.75
2023-01-22T23:28:43.519Z,7.90
2023-01-22T23:31:50.459Z,7.79
2023-01-22T23:34:56.875Z,7.64
2023-01-22T23:38:03.202Z,7.97
2023-01-22T23:41:14.063Z,8.06
2023-01-22T23:44:20.307Z,8.18
2023-01-22T23:47:27.344Z,8.08
2023-01-22T23:50:33.808Z,8.31
2023-01-22T23:53:41.794Z,8.15
2023-01-22T23:56:49.653Z,8.23
2023-01-22T23:59:55.721Z,8.24
